Rich Square, North Carolina
Current Conditions -  °F | °C
As of 8:55 PM on Saturday 20 Dec 2014 (Local Time) from KASJ Reporting Station
Overcast Overcast  
Wind Chill: 34°   Ceiling: 7000
Heat Index: 34°   Visibility: 10mi
Dew Point: 31°   Wind: 0mph
Humidity: 89%   Direction: NA
Pressure: 30.3"   Gusts: NA
Location:  36.27°N, 77.28°W
Report Text: KASJ 210155Z AUTO 00000KT 10SM OVC070 01/00 A3030 RMK AO2 T00111005
Loading
Personal Weather Stations






























Interactive Weather Map New forecast layout! Learn more

10-Day Weather Forecast

Advertisements
Track Severe Weather on mobile